Time;durP1;ratioP1;P1;durP2;ratioP2;P2;SDS_P1;SDS_P2;PMS_P1;PMS_P2;Temp;Humidity;BMP_temperature;BMP_pressure;BME280_temperature;BME280_humidity;BME280_pressure;Samples;Min_cycle;Max_cycle;Signal;HPM_P1;HPM_P2
2022/09/09 00:00:19;;;;;;;;;;;;;;;22.34;100.00;97650.22;5121147;28;19945;-61
2022/09/09 00:02:48;;;;;;;;;;;;;;;22.28;100.00;97652.38;5121561;28;19969;-61
2022/09/09 00:05:16;;;;;;;;;;;;;;;22.22;100.00;97648.31;5117715;28;19930;-61
2022/09/09 00:07:47;;;;;;;;;;;;;;;22.21;100.00;97649.47;5117769;28;19983;-60
2022/09/09 00:10:17;;;;;;;;;;;;;;;22.26;100.00;97654.66;5119806;28;19970;-60
2022/09/09 00:12:49;;;;;;;;;;;;;;;22.31;100.00;97640.81;5121423;28;19924;-61
2022/09/09 00:15:20;;;;;;;;;;;;;;;22.17;100.00;97645.84;5121294;28;19936;-61
2022/09/09 00:17:48;;;;;;;;;;;;;;;22.10;100.00;97644.88;5121197;28;19977;-60
2022/09/09 00:20:18;;;;;;;;;;;;;;;22.23;100.00;97639.03;5112694;28;19992;-60
2022/09/09 00:22:47;;;;;;;;;;;;;;;22.26;100.00;97643.00;5112729;28;19976;-60
2022/09/09 00:25:17;;;;;;;;;;;;;;;22.19;100.00;97634.66;5123358;27;19931;-61
2022/09/09 00:27:46;;;;;;;;;;;;;;;21.90;100.00;97633.00;5121215;28;19924;-61
2022/09/09 00:30:19;;;;;;;;;;;;;;;21.80;100.00;97633.44;5112366;28;19946;-61
2022/09/09 00:32:47;;;;;;;;;;;;;;;21.71;100.00;97636.28;5112268;28;19924;-60
2022/09/09 00:35:18;;;;;;;;;;;;;;;21.65;100.00;97634.94;5112268;28;19925;-61
2022/09/09 00:37:47;;;;;;;;;;;;;;;21.73;100.00;97638.66;5120731;28;19947;-60
2022/09/09 00:40:19;;;;;;;;;;;;;;;21.78;100.00;97646.59;5112148;28;19925;-60
2022/09/09 00:42:45;;;;;;;;;;;;;;;21.80;100.00;97649.75;5112294;28;19931;-61
2022/09/09 00:45:19;;;;;;;;;;;;;;;21.73;100.00;97642.16;5111745;28;19924;-60
2022/09/09 00:47:50;;;;;;;;;;;;;;;21.78;100.00;97644.66;5112032;28;19924;-60
2022/09/09 00:50:30;;;;;;;;;;;;;;;21.85;100.00;97638.66;5120496;28;19983;-61
2022/09/09 00:53:03;;;;;;;;;;;;;;;21.89;100.00;97645.00;5121834;28;19976;-61
2022/09/09 00:55:34;;;;;;;;;;;;;;;21.77;100.00;97643.09;5127459;27;19987;-61
2022/09/09 00:58:01;;;;;;;;;;;;;;;21.79;100.00;97651.69;5122420;28;19931;-61
2022/09/09 01:00:28;;;;;;;;;;;;;;;21.76;100.00;97640.69;5124000;28;19982;-61
2022/09/09 01:03:04;;;;;;;;;;;;;;;21.71;100.00;97643.66;5122775;28;19926;-61
2022/09/09 01:05:34;;;;;;;;;;;;;;;20.97;100.00;97653.66;5120092;28;20244;-60
2022/09/09 01:08:02;;;;;;;;;;;;;;;21.04;100.00;97655.03;5122176;28;19924;-61
2022/09/09 01:10:34;;;;;;;;;;;;;;;20.78;100.00;97650.66;5105709;28;19928;-61
2022/09/09 01:13:03;;;;;;;;;;;;;;;20.01;100.00;97653.22;5121718;28;20023;-61
2022/09/09 01:15:31;;;;;;;;;;;;;;;20.39;100.00;97657.41;5119993;28;20090;-61
2022/09/09 01:18:02;;;;;;;;;;;;;;;20.82;100.00;97661.66;5121488;28;19963;-60
2022/09/09 01:20:32;;;;;;;;;;;;;;;21.08;100.00;97659.44;5123350;28;19928;-62
2022/09/09 01:23:08;;;;;;;;;;;;;;;21.04;100.00;97660.47;5121981;28;19924;-62
2022/09/09 01:25:53;;;;;;;;;;;;;;;20.67;100.00;97665.00;5122123;27;19930;-61
2022/09/09 01:28:23;;;;;;;;;;;;;;;20.61;100.00;97661.69;5119756;28;19920;-61
2022/09/09 01:30:50;;;;;;;;;;;;;;;20.12;100.00;97660.63;5120164;28;19924;-61
2022/09/09 01:33:17;;;;;;;;;;;;;;;20.13;100.00;97659.53;5123322;28;20055;-60
2022/09/09 01:35:46;;;;;;;;;;;;;;;20.39;100.00;97645.78;5105422;28;19955;-60
2022/09/09 01:38:12;;;;;;;;;;;;;;;20.26;100.00;97642.22;5119591;28;20010;-62
2022/09/09 01:40:39;;;;;;;;;;;;;;;20.43;100.00;97646.69;5119538;28;19975;-61
2022/09/09 01:43:07;;;;;;;;;;;;;;;20.62;100.00;97632.63;5121924;28;19988;-61
2022/09/09 01:45:35;;;;;;;;;;;;;;;20.64;100.00;97646.69;5104616;28;19923;-61
2022/09/09 01:48:02;;;;;;;;;;;;;;;20.66;100.00;97649.84;5121054;28;19920;-61
2022/09/09 01:50:28;;;;;;;;;;;;;;;20.55;100.00;97638.59;5119388;28;19998;-61
2022/09/09 01:52:59;;;;;;;;;;;;;;;20.64;100.00;97649.41;5120339;28;19924;-61
2022/09/09 01:55:29;;;;;;;;;;;;;;;20.54;100.00;97653.31;5126780;27;19970;-61
2022/09/09 01:58:02;;;;;;;;;;;;;;;20.00;100.00;97647.03;5120095;28;19928;-60
2022/09/09 02:00:31;;;;;;;;;;;;;;;19.82;100.00;97646.34;5122400;28;19984;-60
2022/09/09 02:03:01;;;;;;;;;;;;;;;20.16;100.00;97645.31;5120909;28;19971;-61
2022/09/09 02:05:34;;;;;;;;;;;;;;;20.02;100.00;97642.09;5118662;28;19959;-61
2022/09/09 02:08:04;;;;;;;;;;;;;;;19.92;100.00;97645.16;5121027;28;19964;-60
2022/09/09 02:10:33;;;;;;;;;;;;;;;19.90;100.00;97648.19;5104444;28;19927;-60
2022/09/09 02:13:03;;;;;;;;;;;;;;;20.10;100.00;97646.63;5120851;28;19959;-60
2022/09/09 02:15:32;;;;;;;;;;;;;;;20.41;100.00;97651.66;5119105;28;19920;-61
2022/09/09 02:18:02;;;;;;;;;;;;;;;20.65;100.00;97656.38;5120344;28;19987;-60
2022/09/09 02:20:32;;;;;;;;;;;;;;;20.73;100.00;97660.94;5122087;28;19950;-60
2022/09/09 02:22:59;;;;;;;;;;;;;;;20.69;100.00;97662.75;5120751;28;19924;-61
2022/09/09 02:25:27;;;;;;;;;;;;;;;20.79;100.00;97659.63;5121139;27;20007;-60
2022/09/09 02:27:54;;;;;;;;;;;;;;;20.85;100.00;97663.69;5119567;28;19991;-60
2022/09/09 02:30:21;;;;;;;;;;;;;;;20.62;100.00;97665.19;5122294;28;19990;-60
2022/09/09 02:32:48;;;;;;;;;;;;;;;20.51;100.00;97666.75;5122061;28;19970;-60
2022/09/09 02:35:18;;;;;;;;;;;;;;;20.28;100.00;97658.94;5110234;28;20010;-60
2022/09/09 02:37:46;;;;;;;;;;;;;;;19.80;100.00;97658.66;5110215;28;19924;-61
2022/09/09 02:40:15;;;;;;;;;;;;;;;19.00;100.00;97660.41;5118733;28;19997;-61
2022/09/09 02:42:41;;;;;;;;;;;;;;;18.94;100.00;97650.09;5118671;28;19946;-61
2022/09/09 02:45:08;;;;;;;;;;;;;;;18.66;100.00;97652.41;5102944;28;19949;-61
2022/09/09 02:47:36;;;;;;;;;;;;;;;18.69;100.00;97654.47;5122220;28;19986;-61
2022/09/09 02:50:08;;;;;;;;;;;;;;;18.61;100.00;97655.25;5119935;28;19924;-61
2022/09/09 02:52:39;;;;;;;;;;;;;;;18.67;100.00;97656.66;5118395;28;19924;-61
2022/09/09 02:55:09;;;;;;;;;;;;;;;18.73;100.00;97652.69;5128011;28;19919;-61
2022/09/09 02:57:37;;;;;;;;;;;;;;;18.71;100.00;97660.34;5118374;28;19974;-61
2022/09/09 03:00:03;;;;;;;;;;;;;;;18.66;100.00;97649.69;5120601;28;19992;-60
2022/09/09 03:02:30;;;;;;;;;;;;;;;18.59;100.00;97658.28;5121610;28;19919;-60
2022/09/09 03:04:56;;;;;;;;;;;;;;;18.33;100.00;97650.16;5120294;28;20010;-60
2022/09/09 03:07:23;;;;;;;;;;;;;;;18.23;100.00;97655.88;5118011;28;19996;-60
2022/09/09 03:09:51;;;;;;;;;;;;;;;17.99;100.00;97654.75;5118295;28;19920;-60
2022/09/09 03:12:17;;;;;;;;;;;;;;;17.78;100.00;97649.19;5121316;28;19920;-60
2022/09/09 03:14:45;;;;;;;;;;;;;;;17.55;100.00;97653.09;5121548;28;19932;-59
2022/09/09 03:17:11;;;;;;;;;;;;;;;17.55;100.00;97650.41;5118154;28;19946;-60
2022/09/09 03:19:38;;;;;;;;;;;;;;;17.21;100.00;97656.44;5117851;28;19924;-60
2022/09/09 03:22:05;;;;;;;;;;;;;;;17.14;100.00;97648.78;5120150;28;19984;-60
2022/09/09 03:24:31;;;;;;;;;;;;;;;16.99;100.00;97661.94;5123890;28;19945;-60
2022/09/09 03:26:58;;;;;;;;;;;;;;;17.40;100.00;97658.91;5120047;28;19924;-60
2022/09/09 03:29:25;;;;;;;;;;;;;;;17.28;100.00;97664.91;5118126;28;20317;-60
2022/09/09 03:31:51;;;;;;;;;;;;;;;17.08;100.00;97663.53;5118581;28;19924;-61
2022/09/09 03:34:17;;;;;;;;;;;;;;;17.09;100.00;97662.44;5121363;28;19920;-60
2022/09/09 03:36:44;;;;;;;;;;;;;;;17.06;100.00;97654.97;5121273;28;19934;-60
2022/09/09 03:39:10;;;;;;;;;;;;;;;16.89;100.00;97670.28;5118228;28;20365;-60
2022/09/09 03:41:37;;;;;;;;;;;;;;;16.93;100.00;97660.47;5117901;28;19924;-60
2022/09/09 03:44:04;;;;;;;;;;;;;;;17.18;100.00;97660.56;5120185;28;19932;-60
2022/09/09 03:46:31;;;;;;;;;;;;;;;17.19;100.00;97674.88;5125338;28;20077;-60
2022/09/09 03:48:57;;;;;;;;;;;;;;;17.15;100.00;97655.00;5124046;28;19923;-60
2022/09/09 03:51:24;;;;;;;;;;;;;;;17.42;100.00;97660.19;5121688;28;19934;-60
2022/09/09 03:53:50;;;;;;;;;;;;;;;17.33;100.00;97653.19;5124853;27;19930;-60
2022/09/09 03:56:17;;;;;;;;;;;;;;;17.37;100.00;97659.53;5125237;28;19999;-60
2022/09/09 03:58:43;;;;;;;;;;;;;;;17.81;100.00;97664.75;5125449;28;19931;-60
2022/09/09 04:01:12;;;;;;;;;;;;;;;17.87;100.00;97650.00;5121902;28;19920;-60
2022/09/09 04:03:39;;;;;;;;;;;;;;;17.63;100.00;97649.63;5121526;28;19947;-60
2022/09/09 04:06:06;;;;;;;;;;;;;;;17.77;100.00;97647.59;5123978;28;19963;-60
2022/09/09 04:08:33;;;;;;;;;;;;;;;18.10;100.00;97654.16;5124809;28;19931;-61
2022/09/09 04:11:01;;;;;;;;;;;;;;;18.31;100.00;97647.00;5123136;28;20014;-61
2022/09/09 04:13:28;;;;;;;;;;;;;;;18.22;100.00;97654.31;5121205;28;19924;-61
2022/09/09 04:15:55;;;;;;;;;;;;;;;18.69;100.00;97657.16;5122132;28;19931;-61
2022/09/09 04:18:23;;;;;;;;;;;;;;;18.93;100.00;97651.22;5124737;28;19966;-61
2022/09/09 04:20:50;;;;;;;;;;;;;;;18.82;100.00;97650.75;5124500;28;19971;-61
2022/09/09 04:23:18;;;;;;;;;;;;;;;18.20;100.00;97644.91;5121027;28;19924;-61
2022/09/09 04:25:46;;;;;;;;;;;;;;;18.50;100.00;97648.59;5123609;27;19939;-61
2022/09/09 04:28:13;;;;;;;;;;;;;;;18.84;100.00;97648.53;5120938;28;19984;-61
2022/09/09 04:30:40;;;;;;;;;;;;;;;18.64;100.00;97646.50;5102938;28;20063;-61
2022/09/09 04:33:06;;;;;;;;;;;;;;;18.88;100.00;97648.69;5123655;28;19920;-61
2022/09/09 04:35:34;;;;;;;;;;;;;;;19.00;100.00;97649.56;5124355;28;19969;-61
2022/09/09 04:38:02;;;;;;;;;;;;;;;18.77;100.00;97648.22;5122608;28;19977;-61
2022/09/09 04:40:29;;;;;;;;;;;;;;;18.32;100.00;97648.56;5120862;28;19924;-61
2022/09/09 04:42:55;;;;;;;;;;;;;;;18.37;100.00;97646.81;5121801;28;19967;-61
2022/09/09 04:45:22;;;;;;;;;;;;;;;18.05;100.00;97643.50;5123854;28;19951;-61
2022/09/09 04:47:48;;;;;;;;;;;;;;;17.72;100.00;97634.25;5124217;28;19928;-61
2022/09/09 04:50:16;;;;;;;;;;;;;;;17.48;100.00;97640.03;5120766;28;19970;-61
2022/09/09 04:52:44;;;;;;;;;;;;;;;17.06;100.00;97649.56;5120830;28;19951;-61
2022/09/09 04:55:10;;;;;;;;;;;;;;;16.89;100.00;97649.50;5129805;27;19924;-61
2022/09/09 04:57:36;;;;;;;;;;;;;;;16.70;100.00;97646.22;5120362;28;19924;-61
2022/09/09 05:00:03;;;;;;;;;;;;;;;16.77;100.00;97646.59;5122880;28;19924;-61
2022/09/09 05:02:30;;;;;;;;;;;;;;;16.76;100.00;97650.38;5123717;28;19931;-61
2022/09/09 05:04:56;;;;;;;;;;;;;;;16.76;100.00;97650.38;5122669;28;19930;-61
2022/09/09 05:07:23;;;;;;;;;;;;;;;16.82;100.00;97641.03;5120395;28;19975;-61
2022/09/09 05:09:50;;;;;;;;;;;;;;;16.52;100.00;97639.09;5102251;28;19974;-61
2022/09/09 05:12:17;;;;;;;;;;;;;;;16.44;100.00;97643.31;5123629;28;19924;-61
2022/09/09 05:14:43;;;;;;;;;;;;;;;16.55;100.00;97644.72;5123703;28;19919;-60
2022/09/09 05:17:10;;;;;;;;;;;;;;;16.53;100.00;97640.66;5120451;28;19924;-60
2022/09/09 05:19:36;;;;;;;;;;;;;;;16.59;100.00;97647.56;5120207;28;19920;-60
2022/09/09 05:22:04;;;;;;;;;;;;;;;16.81;100.00;97650.22;5122073;28;19979;-60
2022/09/09 05:24:32;;;;;;;;;;;;;;;16.46;100.00;97654.59;5126016;27;19985;-60
2022/09/09 05:27:02;;;;;;;;;;;;;;;16.29;100.00;97662.56;5121795;28;19924;-60
2022/09/09 05:29:28;;;;;;;;;;;;;;;16.42;100.00;97661.72;5119859;28;19924;-60
2022/09/09 05:31:54;;;;;;;;;;;;;;;16.17;100.00;97663.09;5120944;28;19928;-60
2022/09/09 05:34:22;;;;;;;;;;;;;;;16.55;100.00;97660.09;5123343;28;19923;-60
2022/09/09 05:36:48;;;;;;;;;;;;;;;17.18;100.00;97657.06;5123388;28;19923;-60
2022/09/09 05:39:14;;;;;;;;;;;;;;;16.69;100.00;97672.38;5119993;28;20031;-60
2022/09/09 05:41:41;;;;;;;;;;;;;;;16.94;100.00;97672.84;5119939;28;19991;-60
2022/09/09 05:44:09;;;;;;;;;;;;;;;17.73;100.00;97673.66;5122486;28;19924;-60
2022/09/09 05:46:35;;;;;;;;;;;;;;;17.68;100.00;97666.47;5123166;28;19966;-60
2022/09/09 05:49:02;;;;;;;;;;;;;;;17.44;100.00;97678.78;5121374;28;19919;-60
2022/09/09 05:51:30;;;;;;;;;;;;;;;17.24;100.00;97689.00;5119660;28;19971;-60
2022/09/09 05:53:58;;;;;;;;;;;;;;;17.43;100.00;97685.25;5123386;27;19920;-60
2022/09/09 05:56:25;;;;;;;;;;;;;;;17.09;100.00;97689.41;5122856;28;19968;-60
2022/09/09 05:58:53;;;;;;;;;;;;;;;16.92;100.00;97691.25;5122123;28;19973;-60
2022/09/09 06:01:22;;;;;;;;;;;;;;;16.77;100.00;97699.72;5119185;28;19920;-60
2022/09/09 06:03:49;;;;;;;;;;;;;;;16.80;100.00;97694.50;5119228;28;19967;-59
2022/09/09 06:06:17;;;;;;;;;;;;;;;16.38;100.00;97703.03;5122742;28;19943;-60
2022/09/09 06:08:45;;;;;;;;;;;;;;;16.04;100.00;97698.94;5122317;28;19945;-61
2022/09/09 06:11:12;;;;;;;;;;;;;;;16.18;100.00;97693.53;5101261;28;19928;-61
2022/09/09 06:13:39;;;;;;;;;;;;;;;16.23;100.00;97695.31;5119046;28;19928;-61
2022/09/09 06:16:07;;;;;;;;;;;;;;;16.87;100.00;97694.03;5121333;28;19932;-61
2022/09/09 06:18:34;;;;;;;;;;;;;;;16.78;100.00;97693.19;5104478;28;19923;-61
2022/09/09 06:21:03;;;;;;;;;;;;;;;16.37;100.00;97688.00;5120889;28;19923;-61
2022/09/09 06:23:29;;;;;;;;;;;;;;;16.21;100.00;97692.94;5118922;28;19931;-60
2022/09/09 06:26:06;;;;;;;;;;;;;;;16.04;100.00;97685.47;5122896;27;19935;-61
2022/09/09 06:28:32;;;;;;;;;;;;;;;16.16;100.00;97683.06;5122570;28;19958;-61
2022/09/09 06:30:59;;;;;;;;;;;;;;;16.38;100.00;97684.16;5120920;28;19963;-61
2022/09/09 06:33:26;;;;;;;;;;;;;;;16.36;100.00;97686.38;5118904;28;19954;-61
2022/09/09 06:35:54;;;;;;;;;;;;;;;16.33;100.00;97693.19;5119338;28;19968;-60
2022/09/09 06:38:21;;;;;;;;;;;;;;;16.29;100.00;97688.69;5121990;28;19924;-60
2022/09/09 06:40:51;;;;;;;;;;;;;;;16.24;100.00;97700.41;5122353;28;19930;-60
2022/09/09 06:43:17;;;;;;;;;;;;;;;16.79;100.00;97690.22;5110263;28;20002;-61
2022/09/09 06:45:44;;;;;;;;;;;;;;;17.61;100.00;97692.34;5110144;28;19924;-60
2022/09/09 06:48:11;;;;;;;;;;;;;;;17.67;100.00;97697.28;5110197;28;19932;-61
2022/09/09 06:50:37;;;;;;;;;;;;;;;17.97;100.00;97690.22;5110120;28;19931;-61
2022/09/09 06:53:05;;;;;;;;;;;;;;;17.87;100.00;97684.31;5110130;28;19925;-61
2022/09/09 06:55:31;;;;;;;;;;;;;;;18.26;100.00;97692.28;5121051;28;19948;-61
2022/09/09 06:57:58;;;;;;;;;;;;;;;18.22;100.00;97686.75;5119780;28;19927;-61
2022/09/09 07:00:24;;;;;;;;;;;;;;;18.37;100.00;97687.38;5121795;28;19923;-60
2022/09/09 07:02:51;;;;;;;;;;;;;;;18.15;100.00;97683.72;5121515;28;19955;-60
2022/09/09 07:05:18;;;;;;;;;;;;;;;17.75;100.00;97690.34;5118436;28;19935;-61
2022/09/09 07:07:44;;;;;;;;;;;;;;;17.81;100.00;97689.06;5118385;28;19931;-61
2022/09/09 07:10:12;;;;;;;;;;;;;;;17.75;100.00;97698.44;5121509;28;20325;-61
2022/09/09 07:12:38;;;;;;;;;;;;;;;18.01;100.00;97691.16;5121851;28;19927;-60
2022/09/09 07:15:05;;;;;;;;;;;;;;;18.03;100.00;97688.97;5119364;28;19946;-60
2022/09/09 07:17:31;;;;;;;;;;;;;;;18.08;100.00;97699.59;5117864;28;20019;-60
2022/09/09 07:19:57;;;;;;;;;;;;;;;17.90;100.00;97703.38;5123007;28;19928;-60
2022/09/09 07:22:24;;;;;;;;;;;;;;;18.64;100.00;97708.72;5125782;28;19979;-60
2022/09/09 07:24:51;;;;;;;;;;;;;;;18.90;100.00;97717.59;5128107;27;19923;-60
2022/09/09 07:27:18;;;;;;;;;;;;;;;18.99;100.00;97712.16;5122286;28;19924;-60
2022/09/09 07:29:45;;;;;;;;;;;;;;;19.19;100.00;97704.13;5122382;28;19963;-60
2022/09/09 07:32:11;;;;;;;;;;;;;;;18.87;100.00;97702.00;5125494;28;19928;-60
2022/09/09 07:34:37;;;;;;;;;;;;;;;18.76;100.00;97715.06;5125472;28;19951;-60
2022/09/09 07:37:04;;;;;;;;;;;;;;;18.52;100.00;97713.97;5123162;28;19932;-60
2022/09/09 07:39:30;;;;;;;;;;;;;;;18.88;100.00;97726.03;5121793;28;20084;-60
2022/09/09 07:41:57;;;;;;;;;;;;;;;19.31;100.00;97739.44;5104895;28;19928;-60
2022/09/09 07:44:26;;;;;;;;;;;;;;;19.66;100.00;97728.50;5124943;28;19979;-60
2022/09/09 07:46:53;;;;;;;;;;;;;;;19.83;100.00;97744.72;5124469;28;19926;-60
2022/09/09 07:49:19;;;;;;;;;;;;;;;19.78;100.00;97750.28;5121708;28;19924;-60
2022/09/09 07:51:47;;;;;;;;;;;;;;;19.94;100.00;97756.75;5121662;28;19979;-61
2022/09/09 07:54:15;;;;;;;;;;;;;;;19.91;100.00;97773.66;5108283;28;19962;-60
2022/09/09 07:56:42;;;;;;;;;;;;;;;19.89;100.00;97759.66;5125020;28;19970;-60
2022/09/09 07:59:10;;;;;;;;;;;;;;;19.89;100.00;97755.03;5103918;28;19983;-60
2022/09/09 08:01:39;;;;;;;;;;;;;;;19.61;100.00;97761.22;5121292;28;19924;-60
2022/09/09 08:04:06;;;;;;;;;;;;;;;19.45;100.00;97754.75;5123765;28;19963;-60
2022/09/09 08:06:34;;;;;;;;;;;;;;;18.70;100.00;97756.13;5124896;28;19923;-60
2022/09/09 08:09:00;;;;;;;;;;;;;;;18.65;100.00;97757.09;5123083;28;19994;-60
2022/09/09 08:11:28;;;;;;;;;;;;;;;18.30;100.00;97750.81;5121242;28;19939;-60
2022/09/09 08:13:55;;;;;;;;;;;;;;;18.02;100.00;97763.03;5122197;28;19987;-60
2022/09/09 08:16:22;;;;;;;;;;;;;;;17.80;100.00;97760.41;5124989;28;19920;-60
2022/09/09 08:18:51;;;;;;;;;;;;;;;17.71;100.00;97764.97;5106316;28;19987;-60
2022/09/09 08:21:18;;;;;;;;;;;;;;;17.56;100.00;97765.41;5120996;28;19927;-60
2022/09/09 08:23:46;;;;;;;;;;;;;;;17.82;100.00;97763.59;5122666;27;19931;-60
2022/09/09 08:26:14;;;;;;;;;;;;;;;18.07;100.00;97765.56;5124253;28;20005;-60
2022/09/09 08:28:41;;;;;;;;;;;;;;;18.23;100.00;97764.00;5124411;28;19924;-60
2022/09/09 08:31:08;;;;;;;;;;;;;;;18.30;100.00;97764.34;5120733;28;19928;-59
2022/09/09 08:33:36;;;;;;;;;;;;;;;18.22;100.00;97762.44;5120639;28;19924;-59
2022/09/09 08:36:04;;;;;;;;;;;;;;;18.54;100.00;97763.91;5122440;28;19966;-60
2022/09/09 08:38:30;;;;;;;;;;;;;;;18.47;100.00;97760.06;5123630;28;19939;-60
2022/09/09 08:41:00;;;;;;;;;;;;;;;18.54;100.00;97763.09;5122546;28;20491;-60
2022/09/09 08:43:29;;;;;;;;;;;;;;;18.67;100.00;97762.97;5120394;28;20030;-60
2022/09/09 08:46:00;;;;;;;;;;;;;;;18.97;100.00;97766.59;5121069;28;19924;-65
2022/09/09 08:48:38;;;;;;;;;;;;;;;18.85;100.00;97763.75;5123734;28;19938;-60
2022/09/09 08:51:08;;;;;;;;;;;;;;;18.36;100.00;97773.09;5121429;28;19924;-61
2022/09/09 08:53:39;;;;;;;;;;;;;;;18.39;100.00;97772.47;5120273;28;19924;-61
2022/09/09 08:56:11;;;;;;;;;;;;;;;18.31;100.00;97774.06;5122821;28;20533;-61
2022/09/09 08:58:44;;;;;;;;;;;;;;;18.69;100.00;97776.97;5123736;28;19963;-61
2022/09/09 09:01:27;;;;;;;;;;;;;;;18.97;100.00;97782.81;5120515;28;19956;-61
2022/09/09 09:03:58;;;;;;;;;;;;;;;18.91;100.00;97767.09;5120683;28;19920;-60
2022/09/09 09:06:37;;;;;;;;;;;;;;;19.33;100.00;97764.31;5123499;28;20035;-60
2022/09/09 09:09:06;;;;;;;;;;;;;;;19.22;100.00;97754.94;5121285;28;19928;-61
2022/09/09 09:11:36;;;;;;;;;;;;;;;18.93;100.00;97770.28;5119756;28;19970;-61
2022/09/09 09:14:04;;;;;;;;;;;;;;;18.88;100.00;97770.44;5121918;28;19936;-61
2022/09/09 09:16:34;;;;;;;;;;;;;;;18.88;100.00;97773.16;5123368;28;19928;-61
2022/09/09 09:19:00;;;;;;;;;;;;;;;19.25;100.00;97767.81;5121960;28;19924;-61
2022/09/09 09:21:35;;;;;;;;;;;;;;;19.52;100.00;97768.59;5120028;28;19987;-60
2022/09/09 09:24:06;;;;;;;;;;;;;;;19.68;100.00;97769.66;5124153;27;19999;-60
2022/09/09 09:26:34;;;;;;;;;;;;;;;19.48;100.00;97757.59;5122920;28;19930;-60
2022/09/09 09:29:02;;;;;;;;;;;;;;;19.27;100.00;97762.09;5121339;28;19934;-60
2022/09/09 09:31:29;;;;;;;;;;;;;;;19.22;100.00;97767.66;5119586;28;19924;-60
2022/09/09 09:33:58;;;;;;;;;;;;;;;18.92;100.00;97763.25;5120545;28;19999;-60
2022/09/09 09:36:25;;;;;;;;;;;;;;;18.93;100.00;97762.97;5123171;28;19924;-61
2022/09/09 09:38:53;;;;;;;;;;;;;;;18.79;100.00;97760.41;5122373;28;20022;-60
2022/09/09 09:41:31;;;;;;;;;;;;;;;18.79;100.00;97765.03;5119181;28;19984;-60
2022/09/09 09:43:57;;;;;;;;;;;;;;;19.10;100.00;97760.22;5120546;28;19928;-60
2022/09/09 09:46:25;;;;;;;;;;;;;;;19.34;100.00;97754.28;5122765;28;19919;-60
2022/09/09 09:48:57;;;;;;;;;;;;;;;19.23;100.00;97747.59;5122416;28;19932;-60
2022/09/09 09:51:23;;;;;;;;;;;;;;;19.24;100.00;97750.00;5119122;28;19920;-60
2022/09/09 09:53:52;;;;;;;;;;;;;;;19.29;100.00;97751.72;5122363;27;19924;-60
2022/09/09 09:56:26;;;;;;;;;;;;;;;19.21;100.00;97758.78;5122558;28;20351;-60
2022/09/09 09:58:55;;;;;;;;;;;;;;;19.46;100.00;97754.44;5122066;28;19959;-61
2022/09/09 10:01:23;;;;;;;;;;;;;;;19.60;100.00;97749.59;5119030;28;19975;-60
2022/09/09 10:03:51;;;;;;;;;;;;;;;19.90;100.00;97739.53;5118798;28;20516;-60
2022/09/09 10:06:18;;;;;;;;;;;;;;;19.72;100.00;97743.47;5122298;28;19988;-61
2022/09/09 10:08:46;;;;;;;;;;;;;;;19.51;100.00;97738.00;5122332;28;19949;-61
2022/09/09 10:11:28;;;;;;;;;;;;;;;19.58;100.00;97732.88;5119231;28;19924;-61
2022/09/09 10:14:03;;;;;;;;;;;;;;;19.96;100.00;97732.81;5119632;28;19946;-61
2022/09/09 10:16:36;;;;;;;;;;;;;;;20.34;100.00;97727.34;5122273;28;19924;-61
2022/09/09 10:19:04;;;;;;;;;;;;;;;20.53;100.00;97735.00;5120321;28;19924;-61
2022/09/09 10:21:39;;;;;;;;;;;;;;;20.44;100.00;97737.81;5118551;28;19928;-61
2022/09/09 10:24:13;;;;;;;;;;;;;;;20.15;100.00;97735.91;5123783;27;19978;-61
2022/09/09 10:26:43;;;;;;;;;;;;;;;20.02;100.00;97736.16;5121850;28;19987;-61
2022/09/09 10:29:25;;;;;;;;;;;;;;;20.21;100.00;97733.81;5118855;28;19928;-61
2022/09/09 10:31:58;;;;;;;;;;;;;;;20.67;100.00;97730.94;5118670;28;19999;-61
2022/09/09 10:34:32;;;;;;;;;;;;;;;20.56;100.00;97734.34;5121966;28;19959;-61
2022/09/09 10:36:59;;;;;;;;;;;;;;;20.53;100.00;97743.16;5120276;28;19934;-61
2022/09/09 10:39:32;;;;;;;;;;;;;;;20.55;100.00;97738.97;5118075;28;19920;-61
2022/09/09 10:42:03;;;;;;;;;;;;;;;20.52;100.00;97741.59;5119508;28;19924;-61
2022/09/09 10:44:50;;;;;;;;;;;;;;;20.12;100.00;97736.56;5121424;28;19923;-61
2022/09/09 10:47:23;;;;;;;;;;;;;;;19.89;100.00;97748.81;5107519;27;20302;-61
2022/09/09 10:49:59;;;;;;;;;;;;;;;19.80;100.00;97735.31;5109485;28;19924;-61
2022/09/09 10:52:31;;;;;;;;;;;;;;;19.82;100.00;97743.09;5108979;28;19984;-61
2022/09/09 10:55:01;;;;;;;;;;;;;;;19.51;100.00;97738.00;5120385;28;19987;-61
2022/09/09 10:57:31;;;;;;;;;;;;;;;19.86;100.00;97738.63;5118248;28;19967;-61
2022/09/09 11:00:01;;;;;;;;;;;;;;;20.01;100.00;97748.91;5118840;28;19991;-61
2022/09/09 11:02:30;;;;;;;;;;;;;;;20.26;100.00;97739.84;5121148;28;19953;-61
2022/09/09 11:04:59;;;;;;;;;;;;;;;20.53;100.00;97743.16;5120177;28;19924;-61
2022/09/09 11:07:28;;;;;;;;;;;;;;;20.37;100.00;97741.03;5117918;28;19991;-61
2022/09/09 11:09:58;;;;;;;;;;;;;;;20.09;100.00;97744.53;5118564;28;19991;-61
2022/09/09 11:12:24;;;;;;;;;;;;;;;19.79;100.00;97722.09;5121154;28;20050;-61
2022/09/09 11:14:53;;;;;;;;;;;;;;;19.92;100.00;97729.19;5121155;28;19959;-61
2022/09/09 11:17:22;;;;;;;;;;;;;;;20.11;100.00;97726.06;5117613;28;19974;-61
2022/09/09 11:19:50;;;;;;;;;;;;;;;20.04;100.00;97723.84;5117741;28;19924;-61
2022/09/09 11:22:25;;;;;;;;;;;;;;;20.26;100.00;97720.06;5118266;28;19955;-61
2022/09/09 11:24:54;;;;;;;;;;;;;;;20.23;100.00;97721.50;5128087;28;20443;-61
2022/09/09 11:27:24;;;;;;;;;;;;;;;20.18;100.00;97724.38;5117748;28;19935;-61
2022/09/09 11:30:00;;;;;;;;;;;;;;;20.20;100.00;97724.06;5099958;28;19920;-61
2022/09/09 11:32:35;;;;;;;;;;;;;;;20.20;100.00;97729.50;5120921;28;19934;-61
2022/09/09 11:35:22;;;;;;;;;;;;;;;20.02;100.00;97728.81;5119107;28;19923;-61
2022/09/09 11:37:54;;;;;;;;;;;;;;;19.98;100.00;97727.88;5117415;28;19931;-61
2022/09/09 11:40:25;;;;;;;;;;;;;;;20.15;100.00;97729.66;5108726;28;19928;-61
2022/09/09 11:43:01;;;;;;;;;;;;;;;20.45;100.00;97737.50;5109312;28;19927;-61
2022/09/09 11:45:29;;;;;;;;;;;;;;;20.53;100.00;97735.00;5108551;28;19924;-61
2022/09/09 11:47:56;;;;;;;;;;;;;;;20.40;100.00;97726.81;5108704;28;19931;-61
2022/09/09 11:50:31;;;;;;;;;;;;;;;20.48;100.00;97717.03;5108716;28;19946;-60
2022/09/09 11:53:05;;;;;;;;;;;;;;;20.50;100.00;97722.91;5108819;28;19932;-61
2022/09/09 11:55:33;;;;;;;;;;;;;;;20.62;100.00;97720.25;5120205;28;19932;-60
2022/09/09 11:58:00;;;;;;;;;;;;;;;20.49;100.00;97717.84;5118957;28;19954;-61
2022/09/09 12:00:34;;;;;;;;;;;;;;;20.52;100.00;97725.31;5121067;28;19983;-62
2022/09/09 12:03:01;;;;;;;;;;;;;;;20.18;100.00;97724.38;5119540;28;19959;-61
2022/09/09 12:05:40;;;;;;;;;;;;;;;20.10;100.00;97717.13;5118242;28;19931;-61
2022/09/09 12:08:07;;;;;;;;;;;;;;;20.30;100.00;97719.06;5123479;28;19924;-61
2022/09/09 12:10:35;;;;;;;;;;;;;;;20.06;100.00;97710.75;5124450;28;19931;-61
2022/09/09 12:13:09;;;;;;;;;;;;;;;20.02;100.00;97709.84;5122751;28;19927;-60
2022/09/09 12:15:35;;;;;;;;;;;;;;;20.16;100.00;97702.25;5120615;28;19946;-60
2022/09/09 12:18:02;;;;;;;;;;;;;;;20.16;100.00;97709.59;5122580;28;19935;-60
2022/09/09 12:20:32;;;;;;;;;;;;;;;20.19;100.00;97715.13;5124586;28;19927;-61
2022/09/09 12:23:07;;;;;;;;;;;;;;;19.96;100.00;97710.38;5122937;28;19928;-60
2022/09/09 12:25:39;;;;;;;;;;;;;;;20.03;100.00;97707.91;5123621;27;20011;-60
2022/09/09 12:28:09;;;;;;;;;;;;;;;20.05;100.00;97698.34;5122810;28;20023;-60
2022/09/09 12:30:41;;;;;;;;;;;;;;;20.14;100.00;97704.50;5124264;28;19931;-60
2022/09/09 12:33:11;;;;;;;;;;;;;;;20.05;100.00;97698.34;5121497;28;19924;-60
2022/09/09 12:35:38;;;;;;;;;;;;;;;19.94;100.00;97689.78;5102240;28;19924;-61
2022/09/09 12:38:11;;;;;;;;;;;;;;;19.87;100.00;97697.63;5122540;28;19931;-61
2022/09/09 12:40:39;;;;;;;;;;;;;;;19.95;100.00;97696.00;5124054;28;19923;-61
2022/09/09 12:43:17;;;;;;;;;;;;;;;20.01;100.00;97694.69;5121705;28;20005;-62